Time;durP1;ratioP1;P1;durP2;ratioP2;P2;SDS_P1;SDS_P2;PMS_P1;PMS_P2;Temp;Humidity;BMP_temperature;BMP_pressure;BME280_temperature;BME280_humidity;BME280_pressure;Samples;Min_cycle;Max_cycle;Signal;HPM_P1;HPM_P2
2021/04/08 00:02:21;;;;;;;6.35;4.10;;;2.70;94.10;;;;;;5039546;28;20292;-80
2021/04/08 00:04:49;;;;;;;5.03;3.92;;;2.70;94.40;;;;;;5042613;28;20231;-82
2021/04/08 00:07:16;;;;;;;10.63;4.32;;;2.70;94.50;;;;;;5041134;28;20224;-82
2021/04/08 00:09:43;;;;;;;7.25;3.92;;;2.60;94.30;;;;;;5041512;28;20223;-82
2021/04/08 00:12:10;;;;;;;7.47;4.47;;;2.60;94.50;;;;;;5046983;28;20628;-83
2021/04/08 00:14:37;;;;;;;7.85;4.63;;;2.60;94.70;;;;;;5039518;28;20295;-83
2021/04/08 00:17:04;;;;;;;11.38;4.88;;;2.50;95.20;;;;;;5042783;28;20219;-84
2021/04/08 00:19:32;;;;;;;5.22;3.75;;;2.40;95.50;;;;;;5052267;28;20249;-84
2021/04/08 00:22:00;;;;;;;5.25;4.75;;;2.40;95.80;;;;;;5051120;28;20232;-84
2021/04/08 00:24:27;;;;;;;5.40;4.53;;;2.40;96.00;;;;;;5049078;28;20986;-82
2021/04/08 00:26:54;;;;;;;6.50;4.20;;;2.30;96.20;;;;;;5052081;28;20240;-84
2021/04/08 00:29:21;;;;;;;11.75;4.30;;;2.30;96.70;;;;;;5032660;28;20230;-83
2021/04/08 00:31:48;;;;;;;4.68;3.85;;;2.30;96.70;;;;;;5038134;28;20222;-81
2021/04/08 00:34:15;;;;;;;10.80;4.78;;;2.20;96.70;;;;;;5053353;28;20231;-84
2021/04/08 00:36:43;;;;;;;8.65;4.22;;;2.20;96.80;;;;;;5026087;28;20259;-82
2021/04/08 00:39:12;;;;;;;7.68;4.40;;;2.20;96.60;;;;;;5039181;28;20295;-83
2021/04/08 00:41:40;;;;;;;7.30;4.18;;;2.20;96.70;;;;;;5045976;28;20228;-83
2021/04/08 00:44:07;;;;;;;5.97;4.05;;;2.10;97.00;;;;;;5042341;28;20255;-83
2021/04/08 00:46:34;;;;;;;5.03;4.00;;;2.10;97.20;;;;;;5042494;28;20311;-82
2021/04/08 00:49:02;;;;;;;10.77;4.32;;;2.00;97.40;;;;;;5047423;28;20224;-82
2021/04/08 00:51:29;;;;;;;6.80;4.28;;;2.00;97.30;;;;;;5050929;28;20259;-83
2021/04/08 00:53:57;;;;;;;8.63;4.25;;;2.00;97.40;;;;;;5053893;28;20235;-82
2021/04/08 00:56:25;;;;;;;11.02;4.40;;;2.00;97.20;;;;;;5039596;28;20235;-84
2021/04/08 00:58:52;;;;;;;7.18;4.93;;;2.10;97.10;;;;;;5044168;28;20257;-83
2021/04/08 01:01:20;;;;;;;8.52;4.82;;;2.00;97.30;;;;;;5025444;28;20733;-86
2021/04/08 01:03:47;;;;;;;7.97;4.80;;;2.00;97.20;;;;;;5053895;28;20226;-83
2021/04/08 01:06:14;;;;;;;8.93;4.10;;;2.00;97.20;;;;;;5049797;28;20236;-83
2021/04/08 01:08:41;;;;;;;5.20;4.70;;;2.00;97.20;;;;;;5027848;28;20306;-82
2021/04/08 01:11:09;;;;;;;8.13;3.92;;;2.10;97.00;;;;;;5036475;28;20496;-83
2021/04/08 01:13:38;;;;;;;7.38;3.90;;;2.10;97.10;;;;;;5053112;28;20261;-84
2021/04/08 01:16:12;;;;;;;7.88;4.20;;;2.10;97.10;;;;;;5035302;28;20569;-83
2021/04/08 01:18:56;;;;;;;10.98;5.38;;;2.10;97.20;;;;;;5040018;28;20241;-82
2021/04/08 01:21:32;;;;;;;9.65;4.25;;;2.10;97.30;;;;;;5024238;28;20230;-85
2021/04/08 01:24:31;;;;;;;16.88;4.43;;;2.10;97.70;;;;;;5027373;28;20294;-82
2021/04/08 01:27:22;;;;;;;4.75;3.80;;;2.10;98.00;;;;;;5023574;28;20228;-82
2021/04/08 01:30:14;;;;;;;7.50;4.10;;;2.00;98.10;;;;;;5027360;28;20285;-81
2021/04/08 01:32:45;;;;;;;22.70;4.80;;;2.10;97.90;;;;;;5047644;28;20401;-81
2021/04/08 01:35:14;;;;;;;9.52;5.13;;;2.20;97.50;;;;;;5056042;28;20231;-83
2021/04/08 01:37:48;;;;;;;4.70;4.07;;;2.20;97.30;;;;;;5052762;28;20229;-80
2021/04/08 01:40:18;;;;;;;6.28;4.38;;;2.20;97.40;;;;;;5035694;28;20394;-82
2021/04/08 01:42:48;;;;;;;9.43;5.28;;;2.20;97.40;;;;;;5032145;28;20338;-85
2021/04/08 01:45:19;;;;;;;6.82;4.53;;;2.20;97.30;;;;;;5049471;28;20234;-84
2021/04/08 01:47:47;;;;;;;11.02;4.80;;;2.20;97.40;;;;;;5047205;28;20755;-81
2021/04/08 01:50:17;;;;;;;8.88;4.50;;;2.20;97.50;;;;;;5032052;28;20233;-82
2021/04/08 01:52:48;;;;;;;5.93;3.97;;;2.10;97.80;;;;;;5039918;28;20228;-82
2021/04/08 01:55:17;;;;;;;6.43;4.28;;;2.00;98.20;;;;;;5045147;28;20290;-83
2021/04/08 01:57:46;;;;;;;8.75;4.90;;;2.00;98.40;;;;;;5050318;28;20250;-81
2021/04/08 02:00:15;;;;;;;8.32;4.63;;;1.90;98.60;;;;;;5028286;28;20422;-83
2021/04/08 02:02:47;;;;;;;8.52;5.63;;;1.90;99.00;;;;;;5048944;28;20324;-82
2021/04/08 02:05:16;;;;;;;10.55;4.97;;;1.90;99.10;;;;;;5060538;28;20234;-86
2021/04/08 02:07:46;;;;;;;16.58;5.30;;;1.80;99.20;;;;;;5062222;28;20219;-84
2021/04/08 02:10:15;;;;;;;6.32;5.35;;;1.80;99.10;;;;;;5066156;28;20204;-85
2021/04/08 02:12:46;;;;;;;8.02;4.80;;;1.80;99.10;;;;;;5054279;28;20714;-85
2021/04/08 02:15:17;;;;;;;8.60;4.68;;;1.80;99.20;;;;;;5056401;28;20315;-85
2021/04/08 02:17:47;;;;;;;11.45;5.57;;;1.80;99.40;;;;;;5020772;28;20387;-85
2021/04/08 02:20:16;;;;;;;9.55;4.88;;;1.70;99.70;;;;;;5049995;28;20287;-83
2021/04/08 02:22:45;;;;;;;9.30;5.47;;;1.70;99.80;;;;;;5029938;28;20230;-84
2021/04/08 02:25:14;;;;;;;7.65;5.15;;;1.60;99.80;;;;;;5026731;28;20227;-84
2021/04/08 02:27:43;;;;;;;8.63;5.63;;;1.70;99.80;;;;;;5037814;28;20281;-84
2021/04/08 02:30:13;;;;;;;11.82;5.57;;;1.60;99.80;;;;;;5044711;28;20258;-83
2021/04/08 02:32:41;;;;;;;11.98;5.13;;;1.60;99.80;;;;;;5053079;28;20315;-85
2021/04/08 02:35:12;;;;;;;17.92;4.65;;;1.60;99.80;;;;;;5053902;28;20232;-85
2021/04/08 02:37:40;;;;;;;15.05;5.30;;;1.50;99.80;;;;;;5046013;28;20266;-84
2021/04/08 02:40:10;;;;;;;12.30;6.07;;;1.40;99.80;;;;;;5049045;28;20309;-84
2021/04/08 02:42:37;;;;;;;9.98;5.47;;;1.40;99.80;;;;;;5038640;28;20399;-85
2021/04/08 02:45:06;;;;;;;14.93;5.40;;;1.30;99.80;;;;;;5039727;28;20237;-86
2021/04/08 02:47:33;;;;;;;6.85;5.60;;;1.30;99.80;;;;;;5058846;28;20292;-84
2021/04/08 02:50:00;;;;;;;7.93;5.10;;;1.30;99.80;;;;;;5044343;28;20246;-83
2021/04/08 02:52:46;;;;;;;11.88;5.22;;;1.30;99.80;;;;;;5043351;28;20224;-82
2021/04/08 02:55:16;;;;;;;11.07;5.75;;;1.30;99.80;;;;;;5041728;28;20258;-82
2021/04/08 02:57:52;;;;;;;11.35;5.90;;;1.20;99.80;;;;;;5051988;28;20231;-81
2021/04/08 03:00:21;;;;;;;8.00;5.28;;;1.10;99.80;;;;;;5030238;28;20317;-83
2021/04/08 03:02:53;;;;;;;10.00;6.20;;;1.10;99.80;;;;;;5037002;28;20294;-81
2021/04/08 03:05:21;;;;;;;12.43;5.78;;;1.10;99.80;;;;;;5026978;28;20713;-82
2021/04/08 03:07:52;;;;;;;9.13;6.70;;;1.10;99.80;;;;;;5035171;28;20801;-82
2021/04/08 03:10:19;;;;;;;11.48;6.47;;;1.10;99.80;;;;;;5034528;28;20228;-83
2021/04/08 03:12:49;;;;;;;12.27;5.82;;;1.10;99.80;;;;;;5041332;28;20247;-82
2021/04/08 03:15:21;;;;;;;10.45;6.28;;;1.20;99.80;;;;;;5027779;28;20251;-82
2021/04/08 03:17:50;;;;;;;8.80;6.10;;;1.10;99.80;;;;;;5051427;28;20232;-82
2021/04/08 03:20:18;;;;;;;8.80;5.35;;;1.10;99.80;;;;;;5050823;28;20316;-84
2021/04/08 03:22:47;;;;;;;10.50;5.80;;;1.10;99.80;;;;;;5047644;28;20301;-85
2021/04/08 03:25:16;;;;;;;11.40;6.40;;;1.10;99.80;;;;;;5050887;28;20262;-83
2021/04/08 03:27:44;;;;;;;10.55;5.05;;;1.10;99.80;;;;;;5031474;28;20244;-82
2021/04/08 03:30:13;;;;;;;11.38;6.47;;;1.10;99.80;;;;;;5045303;28;20238;-82
2021/04/08 03:32:40;;;;;;;8.15;5.95;;;1.10;99.80;;;;;;5049233;28;20257;-83
2021/04/08 03:35:09;;;;;;;8.77;5.95;;;1.20;99.80;;;;;;5036183;28;20280;-84
2021/04/08 03:37:36;;;;;;;9.50;5.90;;;1.30;99.80;;;;;;5033846;28;20831;-83
2021/04/08 03:40:04;;;;;;;11.35;5.57;;;1.20;99.80;;;;;;5043724;28;20292;-83
2021/04/08 03:42:34;;;;;;;9.65;6.80;;;1.20;99.80;;;;;;5044880;28;20238;-82
2021/04/08 03:45:02;;;;;;;7.15;5.10;;;1.10;99.80;;;;;;5037825;28;20246;-83
2021/04/08 03:47:29;;;;;;;8.85;5.13;;;1.00;99.80;;;;;;5045315;28;20232;-82
2021/04/08 03:49:58;;;;;;;10.82;6.57;;;1.00;99.80;;;;;;5047390;28;20230;-83
2021/04/08 03:52:26;;;;;;;9.23;5.63;;;1.00;99.80;;;;;;5044842;28;20220;-84
2021/04/08 03:54:55;;;;;;;11.90;6.10;;;1.00;99.80;;;;;;5034731;28;20232;-81
2021/04/08 03:57:23;;;;;;;7.13;5.68;;;1.00;99.80;;;;;;5040081;28;20234;-82
2021/04/08 03:59:52;;;;;;;10.85;6.65;;;1.00;99.80;;;;;;5035286;28;20590;-83
2021/04/08 04:02:21;;;;;;;8.68;6.10;;;1.00;99.80;;;;;;5032666;28;20501;-82
2021/04/08 04:04:49;;;;;;;10.75;6.07;;;1.10;99.80;;;;;;5041008;28;20730;-83
2021/04/08 04:07:16;;;;;;;12.02;6.10;;;1.20;99.80;;;;;;5010980;28;20259;-82
2021/04/08 04:09:44;;;;;;;9.50;6.18;;;1.30;99.80;;;;;;5013733;28;20225;-84
2021/04/08 04:12:15;;;;;;;11.02;6.45;;;1.30;99.80;;;;;;5019904;28;20231;-83
2021/04/08 04:14:44;;;;;;;11.63;5.85;;;1.40;99.80;;;;;;5030884;28;20250;-83
2021/04/08 04:17:26;;;;;;;11.93;5.03;;;1.50;99.80;;;;;;5029493;28;20667;-84
2021/04/08 04:19:54;;;;;;;8.68;5.70;;;1.50;99.80;;;;;;5038827;28;20332;-83
2021/04/08 04:22:37;;;;;;;6.25;5.32;;;1.60;99.80;;;;;;5042561;28;20231;-82
2021/04/08 04:25:05;;;;;;;9.30;5.90;;;1.60;99.80;;;;;;5045616;28;20760;-84
2021/04/08 04:27:33;;;;;;;11.27;5.75;;;1.60;99.80;;;;;;5016449;28;20332;-82
2021/04/08 04:30:00;;;;;;;11.68;5.50;;;1.60;99.80;;;;;;5019694;28;20233;-81
2021/04/08 04:32:28;;;;;;;9.05;5.43;;;1.60;99.80;;;;;;5013258;28;20306;-82
2021/04/08 04:34:55;;;;;;;9.48;5.68;;;1.60;99.80;;;;;;5044445;28;20338;-83
2021/04/08 04:37:22;;;;;;;13.90;5.88;;;1.50;99.80;;;;;;5034595;28;20232;-82
2021/04/08 04:39:49;;;;;;;10.15;5.85;;;1.60;99.80;;;;;;5021310;28;20295;-84
2021/04/08 04:42:17;;;;;;;11.38;5.20;;;1.50;99.80;;;;;;5017168;28;20335;-83
2021/04/08 04:44:44;;;;;;;12.20;5.00;;;1.60;99.80;;;;;;5040181;28;20329;-82
2021/04/08 04:47:11;;;;;;;7.38;4.95;;;1.60;99.80;;;;;;5027926;28;20231;-81
2021/04/08 04:49:39;;;;;;;5.43;4.63;;;1.70;99.80;;;;;;5021302;28;20232;-82
2021/04/08 04:52:06;;;;;;;6.28;5.18;;;1.70;99.80;;;;;;5040195;28;20233;-81
2021/04/08 04:54:33;;;;;;;6.88;5.53;;;1.80;99.80;;;;;;5036908;28;20665;-82
2021/04/08 04:57:00;;;;;;;10.45;5.38;;;1.90;99.80;;;;;;5039630;28;20231;-85
2021/04/08 04:59:27;;;;;;;10.05;4.95;;;2.00;99.80;;;;;;5039349;28;20259;-81
2021/04/08 05:01:54;;;;;;;9.38;6.05;;;2.00;99.80;;;;;;5024967;28;20658;-83
2021/04/08 05:04:21;;;;;;;9.20;5.78;;;2.10;99.80;;;;;;5037999;28;20243;-82
2021/04/08 05:06:49;;;;;;;8.20;5.40;;;2.20;99.80;;;;;;5048537;28;20763;-83
2021/04/08 05:09:16;;;;;;;11.55;5.85;;;2.30;99.80;;;;;;5041810;28;20227;-83
2021/04/08 05:11:43;;;;;;;10.73;5.55;;;2.40;99.80;;;;;;5030554;28;20236;-83
2021/04/08 05:14:10;;;;;;;12.93;6.45;;;2.40;99.80;;;;;;5041352;28;21028;-83
2021/04/08 05:16:38;;;;;;;16.55;5.65;;;2.50;99.80;;;;;;5048657;28;20231;-82
2021/04/08 05:19:05;;;;;;;9.90;5.68;;;2.60;99.80;;;;;;5025159;28;20295;-82
2021/04/08 05:21:32;;;;;;;17.25;6.07;;;2.80;99.80;;;;;;5032049;28;20231;-83
2021/04/08 05:23:59;;;;;;;16.08;5.60;;;2.90;99.80;;;;;;5021433;28;20880;-82
2021/04/08 05:26:26;;;;;;;8.90;6.00;;;3.00;99.40;;;;;;5020590;28;20703;-83
2021/04/08 05:28:53;;;;;;;8.90;5.32;;;3.10;99.30;;;;;;5030925;28;20233;-80
2021/04/08 05:31:20;;;;;;;7.43;5.25;;;3.30;99.20;;;;;;5037685;28;20295;-82
2021/04/08 05:33:47;;;;;;;7.78;5.43;;;3.40;98.40;;;;;;5046003;28;20235;-81
2021/04/08 05:36:14;;;;;;;7.82;5.90;;;3.50;97.80;;;;;;5041048;28;20221;-82
2021/04/08 05:38:42;;;;;;;11.73;5.72;;;3.50;97.70;;;;;;5042112;28;20245;-80
2021/04/08 05:41:10;;;;;;;7.43;5.45;;;3.40;97.50;;;;;;5024220;28;20619;-84
2021/04/08 05:43:37;;;;;;;10.55;5.60;;;3.50;97.60;;;;;;5015207;28;20237;-82
2021/04/08 05:46:09;;;;;;;7.60;5.20;;;3.50;97.80;;;;;;5032729;28;20239;-83
2021/04/08 05:48:36;;;;;;;6.35;5.18;;;3.50;98.10;;;;;;5015768;28;20229;-82
2021/04/08 05:51:04;;;;;;;8.65;5.80;;;3.70;97.30;;;;;;5034892;28;20654;-84
2021/04/08 05:53:31;;;;;;;15.30;6.22;;;3.90;96.90;;;;;;5030486;28;20336;-79
2021/04/08 05:55:59;;;;;;;6.95;5.00;;;3.90;96.90;;;;;;5028736;28;20237;-81
2021/04/08 05:58:26;;;;;;;13.00;6.10;;;4.00;97.00;;;;;;5039689;28;21154;-81
2021/04/08 06:00:53;;;;;;;13.27;5.55;;;3.90;96.30;;;;;;5022991;28;20225;-81
2021/04/08 06:03:20;;;;;;;12.90;5.65;;;3.90;96.50;;;;;;5043847;28;21112;-80
2021/04/08 06:05:47;;;;;;;9.00;6.47;;;3.90;96.20;;;;;;5043737;28;20322;-82
2021/04/08 06:08:14;;;;;;;9.93;5.25;;;3.90;96.00;;;;;;5044347;28;20221;-82
2021/04/08 06:10:42;;;;;;;7.63;5.38;;;3.90;96.20;;;;;;5043454;28;20252;-80
2021/04/08 06:13:09;;;;;;;14.20;6.55;;;4.00;96.00;;;;;;5039632;28;20259;-80
2021/04/08 06:15:36;;;;;;;14.43;5.07;;;3.90;95.70;;;;;;5038637;28;20228;-81
2021/04/08 06:18:04;;;;;;;16.27;6.75;;;3.80;96.00;;;;;;5033860;28;20311;-86
2021/04/08 06:20:31;;;;;;;9.85;5.97;;;3.80;96.60;;;;;;5041328;28;20354;-82
2021/04/08 06:23:04;;;;;;;10.23;6.30;;;3.90;96.70;;;;;;5019715;28;20233;-83
2021/04/08 06:25:31;;;;;;;7.15;5.70;;;3.90;96.60;;;;;;5030414;28;20231;-84
2021/04/08 06:27:59;;;;;;;8.32;5.20;;;3.90;95.90;;;;;;5034824;28;20225;-83
2021/04/08 06:30:27;;;;;;;15.48;6.43;;;3.90;95.80;;;;;;5032323;28;20242;-86
2021/04/08 06:32:55;;;;;;;10.55;5.65;;;3.90;96.20;;;;;;5039920;28;20228;-84
2021/04/08 06:35:23;;;;;;;13.40;5.53;;;3.90;96.20;;;;;;5031930;28;20228;-85
2021/04/08 06:37:51;;;;;;;12.85;5.68;;;4.00;95.80;;;;;;5023153;28;20232;-81
2021/04/08 06:40:19;;;;;;;10.60;6.35;;;4.00;96.10;;;;;;5031269;28;20311;-84
2021/04/08 06:42:47;;;;;;;10.60;5.38;;;4.00;96.00;;;;;;5040601;28;20233;-83
2021/04/08 06:45:15;;;;;;;15.55;6.00;;;4.10;95.90;;;;;;5034637;28;20242;-84
2021/04/08 06:47:59;;;;;;;12.60;5.90;;;4.30;95.70;;;;;;5047130;28;20232;-83
2021/04/08 06:50:32;;;;;;;7.00;6.20;;;4.50;94.80;;;;;;5041343;28;20252;-83
2021/04/08 06:52:59;;;;;;;11.68;5.68;;;4.70;94.30;;;;;;5037401;28;20240;-84
2021/04/08 06:55:27;;;;;;;8.00;5.93;;;4.80;93.50;;;;;;5023907;28;20232;-84
2021/04/08 06:57:54;;;;;;;12.90;6.05;;;4.90;94.10;;;;;;5009734;28;20313;-84
2021/04/08 07:00:22;;;;;;;8.70;5.10;;;5.10;93.10;;;;;;5007431;28;20303;-83
2021/04/08 07:02:49;;;;;;;8.80;5.30;;;5.10;92.20;;;;;;5022312;28;20473;-84
2021/04/08 07:05:18;;;;;;;10.70;5.60;;;4.90;92.20;;;;;;5017120;28;20249;-84
2021/04/08 07:07:45;;;;;;;11.38;6.25;;;4.90;92.70;;;;;;5015651;28;20232;-84
2021/04/08 07:10:13;;;;;;;13.20;6.45;;;4.90;92.50;;;;;;5028475;28;20349;-84
2021/04/08 07:12:40;;;;;;;8.23;5.65;;;4.90;92.40;;;;;;5026173;28;20344;-84
2021/04/08 07:15:09;;;;;;;12.90;7.25;;;4.90;92.50;;;;;;5028547;28;20665;-84
2021/04/08 07:17:37;;;;;;;9.90;5.78;;;5.00;92.70;;;;;;5041249;28;20306;-83
2021/04/08 07:20:05;;;;;;;8.98;5.63;;;5.00;92.80;;;;;;5036396;28;20656;-85
2021/04/08 07:22:33;;;;;;;10.98;5.63;;;5.10;92.10;;;;;;5032834;28;20885;-85
2021/04/08 07:25:00;;;;;;;10.52;5.40;;;5.20;92.00;;;;;;5014027;28;20307;-85
2021/04/08 07:27:34;;;;;;;8.45;5.85;;;5.30;91.70;;;;;;5025105;28;20276;-83
2021/04/08 07:30:02;;;;;;;6.93;5.93;;;5.40;91.50;;;;;;5036300;28;20225;-84
2021/04/08 07:32:31;;;;;;;10.40;5.40;;;5.50;90.90;;;;;;5029504;28;20287;-83
2021/04/08 07:35:00;;;;;;;8.70;4.65;;;5.40;90.90;;;;;;5031263;28;20242;-84
2021/04/08 07:37:30;;;;;;;11.20;5.97;;;5.50;91.30;;;;;;5014265;28;20233;-84
2021/04/08 07:39:59;;;;;;;6.00;4.80;;;5.60;90.50;;;;;;5012842;28;20250;-83
2021/04/08 07:42:29;;;;;;;8.73;5.93;;;5.40;89.90;;;;;;5037381;28;20225;-84
2021/04/08 07:44:57;;;;;;;8.15;6.30;;;5.40;91.00;;;;;;5014632;28;20237;-83
2021/04/08 07:47:27;;;;;;;17.08;5.53;;;5.50;90.60;;;;;;5040465;28;20226;-84
2021/04/08 07:49:56;;;;;;;11.90;6.05;;;5.50;90.60;;;;;;5040754;28;20251;-84
2021/04/08 07:52:29;;;;;;;7.80;5.50;;;5.60;90.10;;;;;;5039139;28;20228;-85
2021/04/08 07:54:59;;;;;;;6.45;4.25;;;5.80;89.80;;;;;;5043793;28;20482;-84
2021/04/08 07:57:26;;;;;;;9.15;4.78;;;5.90;89.60;;;;;;5025688;28;20736;-84
2021/04/08 07:59:54;;;;;;;8.50;5.32;;;6.00;88.90;;;;;;5001230;28;20225;-85
2021/04/08 08:02:24;;;;;;;6.85;4.93;;;6.00;88.90;;;;;;5030539;28;20237;-85
2021/04/08 08:05:16;;;;;;;8.43;5.75;;;6.00;89.10;;;;;;5049877;28;20239;-83
2021/04/08 08:07:44;;;;;;;9.33;5.47;;;6.20;89.30;;;;;;5041801;28;20662;-84
2021/04/08 08:10:27;;;;;;;9.67;5.07;;;6.20;88.10;;;;;;5052664;28;20485;-84
2021/04/08 08:12:54;;;;;;;12.30;4.80;;;6.30;88.20;;;;;;5049097;28;20459;-84
2021/04/08 08:15:26;;;;;;;8.23;5.00;;;6.50;87.80;;;;;;5049064;28;20479;-83
2021/04/08 08:17:54;;;;;;;13.25;5.72;;;6.50;87.10;;;;;;5049026;28;20296;-83
2021/04/08 08:20:23;;;;;;;6.70;4.90;;;6.60;86.80;;;;;;5049016;28;20239;-84
2021/04/08 08:22:50;;;;;;;8.83;4.73;;;6.70;86.60;;;;;;5046201;28;20529;-84
2021/04/08 08:25:26;;;;;;;7.73;4.73;;;6.90;86.00;;;;;;5052025;28;20482;-84
2021/04/08 08:27:56;;;;;;;6.72;3.75;;;6.80;87.00;;;;;;5050674;28;20501;-84
2021/04/08 08:30:25;;;;;;;5.43;3.70;;;6.80;85.60;;;;;;5050746;28;20242;-84
2021/04/08 08:33:20;;;;;;;11.20;4.57;;;6.90;84.80;;;;;;5045765;28;20488;-85
2021/04/08 08:35:47;;;;;;;7.73;4.90;;;6.90;84.50;;;;;;5025862;28;20466;-82
2021/04/08 08:38:17;;;;;;;14.70;4.23;;;7.10;85.10;;;;;;5039424;28;20840;-84
2021/04/08 08:40:47;;;;;;;7.47;3.93;;;7.30;84.00;;;;;;5051073;28;20488;-83
2021/04/08 08:43:17;;;;;;;14.20;4.50;;;7.50;84.00;;;;;;5053592;28;20463;-84
2021/04/08 08:45:44;;;;;;;6.27;3.83;;;8.00;81.80;;;;;;5052016;28;20467;-83
2021/04/08 08:48:16;;;;;;;9.67;3.50;;;8.00;81.70;;;;;;5048918;28;20499;-84
2021/04/08 08:50:44;;;;;;;4.70;2.90;;;8.20;81.10;;;;;;5050386;28;20539;-84
2021/04/08 08:53:14;;;;;;;6.40;2.63;;;8.40;80.80;;;;;;5052321;28;20483;-84
2021/04/08 08:55:42;;;;;;;8.80;3.60;;;8.40;78.20;;;;;;5053915;28;20468;-85
2021/04/08 08:58:13;;;;;;;7.70;3.53;;;8.20;78.80;;;;;;5052796;28;20530;-85
2021/04/08 09:00:41;;;;;;;4.03;3.53;;;8.10;79.50;;;;;;5052835;28;20532;-84
2021/04/08 09:03:08;;;;;;;5.00;2.57;;;8.10;79.90;;;;;;5045144;28;20471;-83
2021/04/08 09:05:36;;;;;;;7.00;2.97;;;8.10;78.30;;;;;;5047851;28;20542;-83
2021/04/08 09:08:09;;;;;;;10.10;2.97;;;8.10;78.00;;;;;;5040553;28;20623;-84
2021/04/08 09:10:56;;;;;;;4.50;2.53;;;8.20;78.20;;;;;;5032724;28;21180;-84
2021/04/08 09:13:24;;;;;;;3.37;2.20;;;8.30;78.00;;;;;;5038045;28;20502;-85
2021/04/08 09:15:52;;;;;;;4.37;2.40;;;8.20;77.70;;;;;;5050228;28;20559;-84
2021/04/08 09:18:23;;;;;;;6.47;1.90;;;8.20;77.80;;;;;;5051010;28;20956;-84
2021/04/08 09:20:50;;;;;;;5.93;2.03;;;8.10;78.00;;;;;;5050855;28;20466;-85
2021/04/08 09:23:18;;;;;;;3.53;3.13;;;8.20;77.30;;;;;;5050903;28;20507;-83
2021/04/08 09:25:53;;;;;;;3.47;2.57;;;8.10;78.40;;;;;;5047165;28;20547;-86
2021/04/08 09:28:25;;;;;;;6.53;2.27;;;8.00;78.70;;;;;;5041955;28;20496;-82
2021/04/08 09:31:07;;;;;;;4.10;2.10;;;8.20;78.10;;;;;;5031622;28;20476;-87
2021/04/08 09:33:57;;;;;;;4.70;1.90;;;8.30;77.10;;;;;;5046856;28;20484;-86
2021/04/08 09:36:42;;;;;;;2.80;1.67;;;8.40;75.90;;;;;;5031403;28;20536;-85
2021/04/08 09:39:28;;;;;;;1.70;1.40;;;8.60;74.70;;;;;;5027810;28;20450;-84
2021/04/08 09:42:02;;;;;;;4.03;1.97;;;8.80;73.80;;;;;;5032530;28;20554;-83
2021/04/08 09:44:30;;;;;;;1.90;1.80;;;8.90;72.20;;;;;;5039630;28;20479;-84
2021/04/08 09:47:00;;;;;;;2.57;2.20;;;8.90;73.90;;;;;;5009776;28;20556;-84
2021/04/08 09:49:57;;;;;;;2.83;1.70;;;8.80;73.90;;;;;;5043873;28;20854;-84
2021/04/08 09:52:24;;;;;;;6.00;2.40;;;8.90;74.00;;;;;;5022498;28;20487;-85
2021/04/08 09:54:56;;;;;;;6.63;2.63;;;9.00;73.90;;;;;;5039528;28;20506;-84
2021/04/08 09:57:41;;;;;;;2.37;2.17;;;9.30;71.70;;;;;;5025716;28;20502;-86
2021/04/08 10:00:12;;;;;;;3.03;2.17;;;9.40;71.60;;;;;;5015845;28;20489;-85
2021/04/08 10:02:56;;;;;;;3.50;2.10;;;9.40;70.10;;;;;;5037515;28;20886;-84
2021/04/08 10:05:23;;;;;;;5.73;2.60;;;9.10;71.40;;;;;;5058457;28;20473;-85
2021/04/08 10:07:54;;;;;;;3.90;1.90;;;9.00;71.40;;;;;;5052118;28;20466;-84
2021/04/08 10:10:37;;;;;;;7.33;2.50;;;8.40;70.70;;;;;;5041970;28;20543;-84
2021/04/08 10:13:15;;;;;;;4.40;2.13;;;7.90;71.50;;;;;;5030225;28;21043;-86
2021/04/08 10:15:42;;;;;;;6.37;2.53;;;7.50;72.30;;;;;;5040351;28;20476;-84
2021/04/08 10:18:14;;;;;;;4.03;2.10;;;7.30;73.70;;;;;;5046818;28;20539;-85
2021/04/08 10:20:43;;;;;;;4.20;2.00;;;7.30;73.30;;;;;;5048226;28;20480;-85
2021/04/08 10:23:10;;;;;;;6.87;2.70;;;7.50;72.90;;;;;;5030007;28;20562;-85
2021/04/08 10:25:39;;;;;;;5.60;2.60;;;7.60;73.00;;;;;;4996693;28;21014;-84
2021/04/08 10:28:06;;;;;;;3.27;2.43;;;7.70;71.90;;;;;;5007359;28;20482;-83
2021/04/08 10:30:38;;;;;;;4.73;2.27;;;7.70;71.50;;;;;;5025979;28;20572;-84
2021/04/08 10:33:17;;;;;;;6.33;2.70;;;7.40;70.70;;;;;;5037231;28;20510;-84
2021/04/08 10:35:45;;;;;;;2.40;2.20;;;7.40;72.00;;;;;;5054299;28;20476;-84
2021/04/08 10:38:12;;;;;;;2.60;2.40;;;7.50;71.90;;;;;;5050035;28;20473;-85
2021/04/08 10:40:50;;;;;;;5.00;2.40;;;7.50;71.10;;;;;;5051407;28;20464;-85
2021/04/08 10:43:18;;;;;;;6.60;3.17;;;7.50;71.70;;;;;;5044523;28;20469;-84
2021/04/08 10:45:53;;;;;;;13.70;6.40;;;7.50;72.40;;;;;;5038122;28;20508;-85
2021/04/08 10:48:22;;;;;;;8.50;3.30;;;7.30;72.40;;;;;;5049300;28;20478;-84
2021/04/08 10:50:51;;;;;;;5.60;3.10;;;7.30;73.20;;;;;;5046347;28;20562;-86
2021/04/08 10:53:19;;;;;;;13.20;2.40;;;7.30;73.30;;;;;;5034626;28;20479;-84
2021/04/08 10:55:46;;;;;;;3.03;2.37;;;7.30;75.30;;;;;;5038290;28;20479;-84
2021/04/08 10:58:25;;;;;;;7.13;2.67;;;7.40;75.20;;;;;;5036281;28;20901;-84
2021/04/08 11:00:52;;;;;;;3.27;2.40;;;7.50;75.00;;;;;;5022715;28;20489;-85
2021/04/08 11:03:21;;;;;;;7.00;2.90;;;7.50;76.10;;;;;;5036537;28;20469;-86
2021/04/08 11:05:48;;;;;;;5.83;2.90;;;7.50;75.70;;;;;;5034644;28;20469;-86
2021/04/08 11:08:15;;;;;;;6.03;2.67;;;7.60;74.90;;;;;;5018925;28;20508;-86
2021/04/08 11:10:43;;;;;;;2.73;2.17;;;7.70;74.70;;;;;;5035900;28;20481;-86
2021/04/08 11:13:11;;;;;;;8.87;2.80;;;7.90;74.10;;;;;;5006780;28;21182;-86
2021/04/08 11:15:42;;;;;;;3.87;2.60;;;8.20;74.10;;;;;;5027109;28;20532;-85
2021/04/08 11:18:11;;;;;;;4.43;2.30;;;8.40;73.50;;;;;;5039502;28;20543;-85
2021/04/08 11:20:41;;;;;;;8.57;3.80;;;8.60;72.40;;;;;;5049492;28;20973;-86
2021/04/08 11:23:09;;;;;;;3.43;3.13;;;8.80;70.80;;;;;;5034820;28;20959;-85
2021/04/08 11:25:38;;;;;;;6.27;3.07;;;9.10;72.20;;;;;;5032967;28;20482;-85
2021/04/08 11:28:07;;;;;;;4.83;3.20;;;9.50;69.90;;;;;;5031955;28;20532;-85
2021/04/08 11:30:37;;;;;;;4.90;2.90;;;10.00;69.90;;;;;;5030898;28;20504;-86
2021/04/08 11:33:06;;;;;;;3.43;2.93;;;10.90;68.00;;;;;;5028014;28;20467;-85
2021/04/08 11:35:37;;;;;;;10.83;3.70;;;11.60;65.10;;;;;;5029224;28;20557;-85
2021/04/08 11:38:15;;;;;;;8.00;3.07;;;11.40;64.40;;;;;;5007995;28;20505;-86
2021/04/08 11:40:44;;;;;;;4.57;2.70;;;11.20;66.90;;;;;;5028384;28;20478;-85
2021/04/08 11:43:23;;;;;;;3.50;2.50;;;11.10;65.50;;;;;;5011863;28;20504;-86
2021/04/08 11:45:50;;;;;;;2.83;2.50;;;10.90;66.50;;;;;;5028090;28;20561;-85
2021/04/08 11:48:18;;;;;;;6.33;2.80;;;10.60;66.70;;;;;;5037947;28;20554;-85
2021/04/08 11:50:47;;;;;;;13.63;3.10;;;10.70;65.50;;;;;;5044792;28;20476;-85
2021/04/08 11:53:18;;;;;;;3.27;2.90;;;10.90;65.50;;;;;;5043565;28;21006;-86
2021/04/08 11:55:48;;;;;;;3.10;2.83;;;11.20;66.40;;;;;;5041806;28;20465;-85
2021/04/08 11:58:26;;;;;;;9.00;3.27;;;11.80;63.40;;;;;;5040751;28;20564;-85
2021/04/08 12:00:53;;;;;;;5.20;2.87;;;12.40;59.00;;;;;;5024153;28;21020;-85
2021/04/08 12:03:24;;;;;;;5.60;3.30;;;13.80;58.80;;;;;;5035989;28;20477;-85
2021/04/08 12:05:52;;;;;;;3.60;2.20;;;17.40;52.40;;;;;;5019980;28;20517;-86
2021/04/08 12:08:43;;;;;;;3.73;2.77;;;21.30;46.60;;;;;;4994290;28;21079;-86
2021/04/08 12:11:13;;;;;;;5.47;2.77;;;23.80;41.20;;;;;;5026604;28;20488;-87
2021/04/08 12:13:42;;;;;;;3.13;2.57;;;23.60;40.60;;;;;;5024672;28;20495;-87
2021/04/08 12:16:22;;;;;;;3.87;2.40;;;23.60;40.60;;;;;;5032804;28;20920;-86
2021/04/08 12:18:50;;;;;;;4.07;2.93;;;21.20;43.60;;;;;;5046481;28;20808;-86
2021/04/08 12:21:19;;;;;;;4.33;2.53;;;19.20;46.20;;;;;;5043300;28;20471;-85
2021/04/08 12:23:48;;;;;;;5.10;2.90;;;17.40;49.90;;;;;;5045738;28;20951;-85
2021/04/08 12:26:29;;;;;;;5.77;2.90;;;16.40;50.10;;;;;;5045018;28;20468;-86
2021/04/08 12:28:56;;;;;;;4.43;2.90;;;15.40;49.70;;;;;;5028048;28;20932;-85
2021/04/08 12:31:23;;;;;;;3.20;2.90;;;14.90;50.80;;;;;;5026504;28;20541;-85
2021/04/08 12:33:50;;;;;;;5.73;2.83;;;13.50;52.40;;;;;;5046633;28;20483;-86
2021/04/08 12:36:18;;;;;;;3.03;2.73;;;13.50;52.40;;;;;;5047286;28;20471;-85
2021/04/08 12:38:47;;;;;;;3.33;3.03;;;13.40;52.60;;;;;;5015916;28;20475;-86
2021/04/08 12:41:14;;;;;;;4.70;2.77;;;13.20;53.70;;;;;;5044099;28;21085;-85
2021/04/08 12:43:42;;;;;;;2.43;2.33;;;13.00;55.80;;;;;;5037497;28;20518;-84
2021/04/08 12:46:09;;;;;;;4.17;3.17;;;13.10;54.50;;;;;;5042114;28;20565;-85
2021/04/08 12:48:36;;;;;;;4.73;3.17;;;14.10;54.30;;;;;;5024490;28;20570;-86
2021/04/08 12:51:04;;;;;;;6.10;3.10;;;15.80;49.60;;;;;;5033100;28;20479;-87
2021/04/08 12:53:31;;;;;;;3.20;2.90;;;15.50;49.90;;;;;;5044569;28;20497;-85
2021/04/08 12:55:59;;;;;;;4.40;3.03;;;15.00;49.90;;;;;;5035461;28;20470;-85
2021/04/08 12:58:26;;;;;;;2.70;2.50;;;14.70;50.90;;;;;;5040089;28;20506;-85
2021/04/08 13:00:54;;;;;;;5.77;3.80;;;14.60;51.20;;;;;;4999453;28;20528;-86
2021/04/08 13:03:24;;;;;;;3.93;3.63;;;15.80;51.90;;;;;;5040253;28;20563;-86
2021/04/08 13:05:51;;;;;;;3.20;2.90;;;16.80;49.20;;;;;;5050678;28;20468;-85
2021/04/08 13:08:20;;;;;;;9.27;3.10;;;16.90;49.40;;;;;;5026594;28;20494;-86